createdAt,value
2023-04-05T00:02:34.879Z,92.88
2023-04-05T00:07:36.612Z,92.68
2023-04-05T00:12:38.253Z,91.23
2023-04-05T00:17:40.061Z,88.22
2023-04-05T00:22:42.516Z,87.19
2023-04-05T00:27:44.610Z,87.51
2023-04-05T00:32:50.351Z,86.71
2023-04-05T00:37:52.210Z,87.00
2023-04-05T00:42:53.980Z,86.35
2023-04-05T00:47:56.001Z,85.88
2023-04-05T00:52:58.619Z,85.08
2023-04-05T00:58:00.736Z,86.63
2023-04-05T01:03:03.410Z,86.94
2023-04-05T01:08:08.229Z,87.47
2023-04-05T01:13:09.801Z,87.93
2023-04-05T01:18:11.522Z,89.57
2023-04-05T01:23:32.754Z,95.49
2023-04-05T01:28:40.262Z,97.00
2023-04-05T01:33:50.424Z,97.65
2023-04-05T01:38:54.720Z,98.10
2023-04-05T01:43:56.354Z,99.55
2023-04-05T01:48:58.013Z,99.09
2023-04-05T01:53:59.634Z,100.00
2023-04-05T01:59:01.412Z,100.00
2023-04-05T02:04:03.022Z,100.00
2023-04-05T02:09:05.723Z,100.00
2023-04-05T02:14:07.278Z,100.00
2023-04-05T02:19:08.805Z,100.00
2023-04-05T02:24:10.330Z,100.00
2023-04-05T02:29:13.284Z,100.00
2023-04-05T02:34:14.822Z,100.00
2023-04-05T02:39:16.371Z,100.00
2023-04-05T02:44:18.080Z,100.00
2023-04-05T02:49:19.593Z,100.00
2023-04-05T02:54:21.650Z,100.00
2023-04-05T02:59:23.825Z,100.00
2023-04-05T03:04:25.425Z,100.00
2023-04-05T03:09:28.873Z,100.00
2023-04-05T03:14:36.550Z,100.00
2023-04-05T03:19:38.667Z,100.00
2023-04-05T03:24:54.660Z,100.00
2023-04-05T03:29:57.078Z,100.00
2023-04-05T03:34:58.990Z,100.00
2023-04-05T03:40:00.567Z,100.00
2023-04-05T03:45:02.229Z,100.00
2023-04-05T03:50:04.285Z,100.00
2023-04-05T03:55:07.735Z,100.00
2023-04-05T04:00:11.523Z,100.00
2023-04-05T04:05:17.439Z,100.00
2023-04-05T04:10:23.962Z,100.00
2023-04-05T04:15:29.348Z,100.00
2023-04-05T04:20:44.818Z,100.00
2023-04-05T04:26:12.008Z,100.00
2023-04-05T04:31:32.127Z,100.00
2023-04-05T04:36:59.650Z,100.00
2023-04-05T04:42:30.637Z,100.00
2023-04-05T04:48:01.448Z,100.00
2023-04-05T04:53:24.609Z,100.00
2023-04-05T04:58:26.129Z,100.00
2023-04-05T05:03:36.798Z,100.00
2023-04-05T05:08:38.328Z,100.00
2023-04-05T05:13:39.838Z,100.00
2023-04-05T05:18:42.631Z,100.00
2023-04-05T05:23:44.234Z,100.00
2023-04-05T05:28:45.751Z,100.00
2023-04-05T05:33:47.369Z,100.00
2023-04-05T05:38:48.879Z,100.00
2023-04-05T05:43:50.416Z,100.00
2023-04-05T05:48:52.241Z,100.00
2023-04-05T05:53:53.801Z,100.00
2023-04-05T05:58:55.404Z,100.00
2023-04-05T06:03:57.003Z,100.00
2023-04-05T06:08:58.528Z,100.00
2023-04-05T06:14:00.055Z,100.00
2023-04-05T06:19:01.582Z,100.00
2023-04-05T06:24:03.192Z,100.00
2023-04-05T06:29:08.334Z,100.00
2023-04-05T06:34:09.828Z,100.00
2023-04-05T06:39:11.347Z,100.00
2023-04-05T06:44:12.957Z,98.63
2023-04-05T06:49:14.605Z,95.59
2023-04-05T06:54:16.191Z,93.06
2023-04-05T06:59:17.840Z,89.70
2023-04-05T07:04:19.426Z,88.66
2023-04-05T07:09:21.048Z,82.68
2023-04-05T07:14:23.096Z,81.40
2023-04-05T07:19:24.830Z,79.72
2023-04-05T07:24:26.328Z,74.42
2023-04-05T07:29:27.881Z,77.85
2023-04-05T07:34:29.405Z,70.41
2023-04-05T07:39:31.151Z,62.99
2023-04-05T07:44:33.754Z,64.40
2023-04-05T07:49:35.333Z,61.31
2023-04-05T07:54:36.888Z,62.36
2023-04-05T07:59:38.630Z,62.15
2023-04-05T08:04:40.299Z,58.57
2023-04-05T08:09:41.873Z,55.00
2023-04-05T08:14:43.425Z,52.54
2023-04-05T08:19:44.972Z,50.80
2023-04-05T08:24:46.543Z,50.12
2023-04-05T08:29:48.131Z,51.02
2023-04-05T08:34:49.628Z,50.48
2023-04-05T08:39:51.303Z,53.71
2023-04-05T08:44:53.362Z,48.90
2023-04-05T08:49:55.336Z,50.27
2023-04-05T08:54:57.034Z,46.87
2023-04-05T09:00:02.478Z,44.23
2023-04-05T09:05:09.115Z,46.82
2023-04-05T09:10:13.778Z,43.25
2023-04-05T09:15:16.739Z,45.48
2023-04-05T09:20:18.469Z,46.44
2023-04-05T09:25:32.178Z,44.57
2023-04-05T09:30:34.384Z,44.16
2023-04-05T09:35:37.212Z,38.19
2023-04-05T09:40:45.625Z,40.83
2023-04-05T09:45:50.186Z,38.20
2023-04-05T09:51:12.726Z,39.04
2023-04-05T09:56:14.794Z,39.55
2023-04-05T10:01:17.419Z,37.66
2023-04-05T10:06:19.197Z,38.09
2023-04-05T10:11:20.765Z,35.84
2023-04-05T10:16:26.412Z,35.67
2023-04-05T10:21:35.409Z,33.20
2023-04-05T10:26:48.743Z,35.38
2023-04-05T10:31:55.116Z,36.18
2023-04-05T10:36:56.756Z,33.31
2023-04-05T10:42:09.930Z,33.72
2023-04-05T10:47:16.423Z,35.60
2023-04-05T10:52:18.293Z,34.83
2023-04-05T10:57:21.313Z,32.11
2023-04-05T11:02:23.226Z,32.56
2023-04-05T11:07:24.973Z,32.02
2023-04-05T11:12:47.993Z,32.38
2023-04-05T11:18:07.742Z,30.32
2023-04-05T11:23:15.037Z,33.58
2023-04-05T11:28:37.201Z,30.65
2023-04-05T11:33:49.795Z,28.63
2023-04-05T11:39:29.575Z,29.40
2023-04-05T11:44:39.987Z,30.22
2023-04-05T11:49:41.538Z,30.46
2023-04-05T11:54:44.046Z,31.39
2023-04-05T11:59:45.673Z,30.05
2023-04-05T12:04:54.630Z,31.14
2023-04-05T12:10:17.178Z,33.24
2023-04-05T12:15:18.816Z,31.34
2023-04-05T12:20:25.029Z,32.19
2023-04-05T12:25:26.840Z,31.63
2023-04-05T12:30:28.402Z,29.41
2023-04-05T12:35:30.188Z,30.99
2023-04-05T12:40:35.563Z,29.20
2023-04-05T12:45:37.940Z,30.35
2023-04-05T12:50:47.433Z,27.90
2023-04-05T12:55:50.110Z,27.52
2023-04-05T13:00:51.707Z,29.93
2023-04-05T13:05:53.461Z,27.88
2023-04-05T13:10:57.750Z,25.76
2023-04-05T13:15:59.920Z,25.20
2023-04-05T13:21:01.681Z,24.32
2023-04-05T13:26:04.437Z,26.32
2023-04-05T13:31:06.014Z,25.06
2023-04-05T13:36:07.935Z,24.80
2023-04-05T13:41:09.543Z,25.31
2023-04-05T13:46:11.203Z,25.84
2023-04-05T13:51:12.879Z,25.13
2023-04-05T13:56:14.422Z,25.75
2023-04-05T14:01:16.004Z,26.85
2023-04-05T14:06:17.653Z,28.32
2023-04-05T14:11:19.184Z,27.30
2023-04-05T14:16:20.803Z,25.39
2023-04-05T14:21:23.864Z,23.81
2023-04-05T14:26:26.915Z,24.58
2023-04-05T14:31:28.591Z,25.60
2023-04-05T14:36:30.201Z,25.86
2023-04-05T14:41:31.872Z,25.66
2023-04-05T14:46:33.547Z,26.13
2023-04-05T14:51:35.227Z,25.62
2023-04-05T14:56:36.917Z,23.99
2023-04-05T15:01:38.663Z,26.00
2023-04-05T15:06:40.304Z,26.75
2023-04-05T15:11:43.062Z,28.30
2023-04-05T15:16:44.679Z,28.63
2023-04-05T15:21:46.423Z,26.99
2023-04-05T15:26:48.037Z,25.82
2023-04-05T15:31:49.673Z,25.39
2023-04-05T15:36:51.325Z,25.68
2023-04-05T15:41:53.020Z,24.82
2023-04-05T15:46:54.678Z,24.93
2023-04-05T15:51:56.276Z,25.58
2023-04-05T15:56:57.877Z,26.33
2023-04-05T16:01:59.659Z,27.25
2023-04-05T16:07:01.284Z,28.29
2023-04-05T16:12:03.093Z,28.12
2023-04-05T16:17:04.743Z,28.13
2023-04-05T16:22:06.456Z,26.63
2023-04-05T16:27:08.320Z,27.55
2023-04-05T16:32:10.010Z,28.28
2023-04-05T16:37:11.578Z,28.19
2023-04-05T16:42:13.129Z,29.86
2023-04-05T16:47:14.713Z,29.40
2023-04-05T16:52:16.384Z,30.25
2023-04-05T16:57:18.123Z,29.34
2023-04-05T17:02:19.822Z,28.78
2023-04-05T17:07:21.428Z,30.90
2023-04-05T17:12:23.152Z,32.10
2023-04-05T17:17:24.847Z,35.28
2023-04-05T17:22:26.749Z,34.19
2023-04-05T17:27:28.442Z,33.66
2023-04-05T17:32:30.044Z,34.24
2023-04-05T17:37:31.752Z,36.87
2023-04-05T17:42:33.302Z,36.75
2023-04-05T17:47:34.898Z,37.23
2023-04-05T17:52:36.567Z,37.79
2023-04-05T17:57:38.213Z,37.42
2023-04-05T18:02:40.048Z,39.35
2023-04-05T18:07:41.714Z,40.15
2023-04-05T18:12:43.270Z,40.61
2023-04-05T18:17:45.389Z,41.73
2023-04-05T18:22:47.162Z,41.93
2023-04-05T18:27:48.768Z,42.51
2023-04-05T18:32:50.704Z,44.57
2023-04-05T18:37:52.346Z,44.86
2023-04-05T18:42:53.944Z,46.32
2023-04-05T18:47:55.600Z,48.20
2023-04-05T18:52:57.176Z,49.51
2023-04-05T18:57:58.724Z,51.25
2023-04-05T19:03:00.418Z,52.13
2023-04-05T19:08:02.024Z,52.14
2023-04-05T19:13:03.649Z,54.17
2023-04-05T19:18:05.387Z,54.41
2023-04-05T19:23:06.996Z,54.47
2023-04-05T19:28:08.630Z,55.85
2023-04-05T19:33:10.305Z,56.04
2023-04-05T19:38:11.958Z,56.79
2023-04-05T19:43:14.686Z,59.37
2023-04-05T19:48:38.650Z,63.31
2023-04-05T19:53:41.548Z,74.74
2023-04-05T19:58:43.915Z,74.92
2023-04-05T20:03:45.634Z,75.90
2023-04-05T20:08:47.819Z,73.85
2023-04-05T20:13:56.518Z,72.05
2023-04-05T20:19:06.315Z,72.67
2023-04-05T20:24:10.086Z,99.85
2023-04-05T20:29:16.910Z,96.52
2023-04-05T20:34:26.579Z,93.03
2023-04-05T20:39:29.667Z,92.66
2023-04-05T20:44:31.260Z,92.13
2023-04-05T20:49:32.803Z,94.64
2023-04-05T20:54:34.355Z,90.58
2023-04-05T20:59:35.964Z,92.35
2023-04-05T21:04:37.565Z,90.20
2023-04-05T21:09:39.126Z,88.42
2023-04-05T21:14:40.712Z,86.83
2023-04-05T21:19:42.269Z,88.34
2023-04-05T21:24:43.823Z,94.84
2023-04-05T21:29:45.410Z,100.00
2023-04-05T21:34:46.954Z,100.00
2023-04-05T21:39:48.479Z,100.00
2023-04-05T21:44:50.005Z,100.00
2023-04-05T21:49:51.542Z,100.00
2023-04-05T21:54:53.100Z,100.00
2023-04-05T21:59:54.669Z,100.00
2023-04-05T22:04:56.217Z,100.00
2023-04-05T22:09:57.769Z,100.00
2023-04-05T22:14:59.343Z,100.00
2023-04-05T22:20:00.865Z,100.00
2023-04-05T22:25:02.448Z,100.00
2023-04-05T22:30:04.750Z,100.00
2023-04-05T22:35:06.921Z,100.00
2023-04-05T22:40:08.958Z,100.00
2023-04-05T22:45:10.928Z,100.00
2023-04-05T22:50:12.507Z,100.00
2023-04-05T22:55:14.070Z,100.00
2023-04-05T23:00:16.454Z,100.00
2023-04-05T23:05:18.038Z,100.00
2023-04-05T23:10:19.992Z,100.00
2023-04-05T23:15:21.726Z,100.00
2023-04-05T23:20:23.356Z,100.00
2023-04-05T23:25:24.925Z,100.00
2023-04-05T23:30:26.513Z,100.00
2023-04-05T23:35:28.172Z,100.00
2023-04-05T23:40:29.765Z,100.00
2023-04-05T23:45:31.354Z,100.00
2023-04-05T23:50:32.890Z,100.00
2023-04-05T23:55:34.417Z,100.00
